Time;durP1;ratioP1;P1;durP2;ratioP2;P2;SDS_P1;SDS_P2;PMS_P1;PMS_P2;Temp;Humidity;BMP_temperature;BMP_pressure;BME280_temperature;BME280_humidity;BME280_pressure;Samples;Min_cycle;Max_cycle;Signal;HPM_P1;HPM_P2
2021/09/21 00:00:48;;;;;;;;;;;;;;;9.01;83.94;102514.69;2089943;28;19916;-63
2021/09/21 00:01:48;;;;;;;;;;;;;;;8.95;84.16;102507.81;2090541;28;20259;-63
2021/09/21 00:02:49;;;;;;;;;;;;;;;8.91;83.54;102511.31;2090647;28;19948;-63
2021/09/21 00:03:49;;;;;;;;;;;;;;;8.89;83.23;102513.06;2090626;28;19944;-63
2021/09/21 00:04:49;;;;;;;;;;;;;;;8.84;83.50;102512.25;2090562;28;19915;-63
2021/09/21 00:05:49;;;;;;;;;;;;;;;8.78;84.06;102513.16;2090556;28;19916;-63
2021/09/21 00:06:49;;;;;;;;;;;;;;;8.72;84.44;102514.06;2090464;28;19908;-62
2021/09/21 00:07:49;;;;;;;;;;;;;;;8.67;84.95;102513.25;2090526;28;19952;-62
2021/09/21 00:08:50;;;;;;;;;;;;;;;8.62;85.08;102517.59;2090548;28;19913;-62
2021/09/21 00:09:50;;;;;;;;;;;;;;;8.58;85.41;102516.78;2081612;28;19964;-63
2021/09/21 00:10:50;;;;;;;;;;;;;;;8.55;85.21;102515.94;2081695;28;19909;-62
2021/09/21 00:11:51;;;;;;;;;;;;;;;8.50;84.91;102521.13;2089910;28;20360;-62
2021/09/21 00:12:52;;;;;;;;;;;;;;;8.49;85.42;102528.06;2090578;28;19908;-62
2021/09/21 00:13:52;;;;;;;;;;;;;;;8.46;85.45;102524.63;2090519;28;19962;-63
2021/09/21 00:14:52;;;;;;;;;;;;;;;8.42;85.76;102525.53;2090510;28;20255;-63
2021/09/21 00:15:53;;;;;;;;;;;;;;;8.36;86.01;102518.63;2090414;28;19909;-63
2021/09/21 00:16:53;;;;;;;;;;;;;;;8.33;86.54;102529.03;2090480;28;20369;-63
2021/09/21 00:17:53;;;;;;;;;;;;;;;8.28;86.53;102523.84;2090517;28;19955;-63
2021/09/21 00:18:53;;;;;;;;;;;;;;;8.25;86.78;102529.94;2090505;28;20370;-64
2021/09/21 00:19:54;;;;;;;;;;;;;;;8.23;86.87;102526.50;2090479;28;19913;-63
2021/09/21 00:20:54;;;;;;;;;;;;;;;8.22;87.37;102532.56;2090432;28;20357;-63
2021/09/21 00:21:54;;;;;;;;;;;;;;;8.21;87.45;102533.44;2090459;28;19967;-63
2021/09/21 00:22:54;;;;;;;;;;;;;;;8.19;87.27;102535.19;2090592;28;19920;-63
2021/09/21 00:23:55;;;;;;;;;;;;;;;8.16;87.55;102531.72;2090423;28;19985;-63
2021/09/21 00:24:55;;;;;;;;;;;;;;;8.17;88.27;102534.31;2090503;28;19909;-63
2021/09/21 00:25:55;;;;;;;;;;;;;;;8.23;87.84;102536.91;2090569;28;20278;-62
2021/09/21 00:26:55;;;;;;;;;;;;;;;8.23;87.73;102541.22;2090402;28;19908;-62
2021/09/21 00:27:55;;;;;;;;;;;;;;;8.24;87.84;102533.44;2090393;28;19909;-62
2021/09/21 00:28:56;;;;;;;;;;;;;;;8.27;87.41;102542.94;2090511;28;19936;-61
2021/09/21 00:29:56;;;;;;;;;;;;;;;8.28;87.75;102542.06;2090437;28;19959;-62
2021/09/21 00:31:03;;;;;;;;;;;;;;;8.29;87.59;102532.53;2090521;28;19916;-62
2021/09/21 00:32:03;;;;;;;;;;;;;;;8.30;87.71;102536.84;2090416;28;19916;-62
2021/09/21 00:33:05;;;;;;;;;;;;;;;8.31;88.22;102533.41;2090425;28;19909;-62
2021/09/21 00:34:12;;;;;;;;;;;;;;;8.32;88.46;102541.16;2090473;28;19936;-62
2021/09/21 00:35:12;;;;;;;;;;;;;;;8.31;88.34;102533.41;2090481;28;19994;-62
2021/09/21 00:36:13;;;;;;;;;;;;;;;8.34;87.04;102528.16;2090457;28;19913;-62
2021/09/21 00:37:14;;;;;;;;;;;;;;;8.39;87.40;102536.81;2090408;28;19966;-62
2021/09/21 00:38:15;;;;;;;;;;;;;;;8.40;87.31;102533.34;2081526;28;19916;-62
2021/09/21 00:39:15;;;;;;;;;;;;;;;8.44;87.33;102539.38;2081628;28;19908;-62
2021/09/21 00:40:15;;;;;;;;;;;;;;;8.46;87.24;102541.09;2090303;28;19909;-62
2021/09/21 00:41:15;;;;;;;;;;;;;;;8.47;87.18;102548.03;2090380;28;19916;-62
2021/09/21 00:42:22;;;;;;;;;;;;;;;8.48;86.77;102541.97;2090439;28;19999;-62
2021/09/21 00:43:22;;;;;;;;;;;;;;;8.50;87.27;102539.34;2081573;28;19913;-61
2021/09/21 00:44:23;;;;;;;;;;;;;;;8.53;87.36;102549.78;2081513;28;19913;-62
2021/09/21 00:45:24;;;;;;;;;;;;;;;8.52;87.23;102544.56;2081642;28;19953;-62
2021/09/21 00:46:24;;;;;;;;;;;;;;;8.53;87.12;102541.06;2090506;28;19944;-62
2021/09/21 00:47:25;;;;;;;;;;;;;;;8.53;87.23;102538.47;2090356;28;19917;-61
2021/09/21 00:48:25;;;;;;;;;;;;;;;8.52;87.11;102537.59;2090379;28;19913;-61
2021/09/21 00:49:25;;;;;;;;;;;;;;;8.51;87.50;102535.88;2090384;28;20350;-61
2021/09/21 00:50:26;;;;;;;;;;;;;;;8.53;86.98;102538.47;2091959;28;19912;-62
2021/09/21 00:51:27;;;;;;;;;;;;;;;8.53;86.78;102543.66;2091979;28;19915;-62
2021/09/21 00:52:27;;;;;;;;;;;;;;;8.56;86.89;102538.47;2091876;28;19912;-62
2021/09/21 00:53:28;;;;;;;;;;;;;;;8.55;86.57;102537.59;2091998;28;19913;-62
2021/09/21 00:54:29;;;;;;;;;;;;;;;8.54;86.87;102540.22;2091946;28;19912;-61
2021/09/21 00:55:30;;;;;;;;;;;;;;;8.54;87.01;102545.41;2091921;28;20304;-61
2021/09/21 00:56:30;;;;;;;;;;;;;;;8.50;86.47;102535.03;2092052;28;19909;-62
2021/09/21 00:57:31;;;;;;;;;;;;;;;8.47;86.11;102540.25;2091918;28;20358;-62
2021/09/21 00:58:31;;;;;;;;;;;;;;;8.45;86.90;102531.56;2091950;28;19961;-61
2021/09/21 00:59:31;;;;;;;;;;;;;;;8.45;86.32;102538.53;2092145;28;19909;-62
2021/09/21 01:00:31;;;;;;;;;;;;;;;8.43;86.40;102535.06;2083029;28;19910;-61
2021/09/21 01:01:32;;;;;;;;;;;;;;;8.40;86.53;102535.94;2074735;28;19910;-62
2021/09/21 01:02:32;;;;;;;;;;;;;;;8.40;86.31;102537.66;2082942;28;19936;-62
2021/09/21 01:03:33;;;;;;;;;;;;;;;8.38;86.62;102535.06;2091820;28;19912;-61
2021/09/21 01:04:34;;;;;;;;;;;;;;;8.38;86.83;102535.06;2091722;28;19909;-62
2021/09/21 01:05:36;;;;;;;;;;;;;;;8.37;87.14;102538.56;2091910;28;19912;-61
2021/09/21 01:06:36;;;;;;;;;;;;;;;8.37;86.50;102535.94;2091918;28;20258;-61
2021/09/21 01:07:37;;;;;;;;;;;;;;;8.38;86.81;102537.66;2091804;28;19923;-62
2021/09/21 01:08:39;;;;;;;;;;;;;;;8.40;86.77;102538.53;2091871;28;19966;-62
2021/09/21 01:09:39;;;;;;;;;;;;;;;8.42;86.54;102543.75;2091785;28;19912;-62
2021/09/21 01:10:39;;;;;;;;;;;;;;;8.43;87.08;102537.66;2083001;28;20394;-61
2021/09/21 01:11:39;;;;;;;;;;;;;;;8.45;86.75;102539.38;2082991;28;20019;-61
2021/09/21 01:12:40;;;;;;;;;;;;;;;8.46;86.64;102537.66;2091737;28;19916;-62
2021/09/21 01:13:40;;;;;;;;;;;;;;;8.48;86.57;102539.34;2091810;28;19912;-62
2021/09/21 01:14:41;;;;;;;;;;;;;;;8.50;86.45;102540.22;2091788;28;19908;-62
2021/09/21 01:15:41;;;;;;;;;;;;;;;8.55;86.70;102537.59;2091794;28;19915;-61
2021/09/21 01:16:41;;;;;;;;;;;;;;;8.59;86.41;102546.28;2091720;28;20400;-62
2021/09/21 01:17:41;;;;;;;;;;;;;;;8.62;86.45;102544.50;2091812;28;19909;-62
2021/09/21 01:18:42;;;;;;;;;;;;;;;8.66;86.23;102549.69;2091754;28;19916;-61
2021/09/21 01:19:42;;;;;;;;;;;;;;;8.67;86.47;102551.41;2091805;28;19915;-61
2021/09/21 01:20:42;;;;;;;;;;;;;;;8.67;86.28;102548.81;2091695;28;19916;-61
2021/09/21 01:21:43;;;;;;;;;;;;;;;8.69;86.41;102550.53;2091718;28;19909;-61
2021/09/21 01:22:43;;;;;;;;;;;;;;;8.72;86.55;102560.03;2091791;28;19991;-62
2021/09/21 01:23:54;;;;;;;;;;;;;;;8.72;86.05;102558.31;2091816;28;19916;-62
2021/09/21 01:24:54;;;;;;;;;;;;;;;8.75;85.78;102562.63;2082816;28;20420;-62
2021/09/21 01:25:55;;;;;;;;;;;;;;;8.72;85.74;102553.09;2082969;28;19975;-62
2021/09/21 01:26:55;;;;;;;;;;;;;;;8.76;85.84;102557.41;2091707;28;19913;-62
2021/09/21 01:27:55;;;;;;;;;;;;;;;8.76;86.35;102552.22;2091766;28;19909;-60
2021/09/21 01:28:55;;;;;;;;;;;;;;;8.78;86.26;102559.13;2091771;28;20350;-61
2021/09/21 01:29:56;;;;;;;;;;;;;;;8.78;86.41;102554.81;2082863;28;19909;-61
2021/09/21 01:30:56;;;;;;;;;;;;;;;8.77;86.32;102558.28;2083022;28;19937;-62
2021/09/21 01:31:56;;;;;;;;;;;;;;;8.76;86.53;102564.38;2091696;28;20234;-62
2021/09/21 01:32:56;;;;;;;;;;;;;;;8.76;86.34;102567.81;2082897;28;19923;-62
2021/09/21 01:33:57;;;;;;;;;;;;;;;8.78;86.28;102566.94;2082831;28;19916;-62
2021/09/21 01:35:00;;;;;;;;;;;;;;;8.79;85.92;102566.09;2094472;28;19958;-62
2021/09/21 01:36:00;;;;;;;;;;;;;;;8.78;85.98;102564.34;2091764;28;19913;-62
2021/09/21 01:37:00;;;;;;;;;;;;;;;8.80;85.94;102562.59;2091757;28;20267;-61
2021/09/21 01:38:01;;;;;;;;;;;;;;;8.78;85.85;102562.63;2091877;28;19909;-62
2021/09/21 01:39:01;;;;;;;;;;;;;;;8.76;85.66;102557.41;2091809;28;19913;-61
2021/09/21 01:40:02;;;;;;;;;;;;;;;8.75;85.93;102555.69;2083032;28;19913;-61
2021/09/21 01:41:02;;;;;;;;;;;;;;;8.72;85.83;102555.72;2082967;28;19980;-62
2021/09/21 01:42:02;;;;;;;;;;;;;;;8.70;85.87;102557.47;2082973;28;20398;-62
2021/09/21 01:43:03;;;;;;;;;;;;;;;8.70;86.18;102554.88;2082976;28;19955;-62
2021/09/21 01:44:03;;;;;;;;;;;;;;;8.70;85.94;102560.09;2091790;28;19908;-62
2021/09/21 01:45:03;;;;;;;;;;;;;;;8.68;86.08;102559.22;2091759;28;19908;-61
2021/09/21 01:46:03;;;;;;;;;;;;;;;8.67;86.04;102561.81;2091705;28;19916;-62
2021/09/21 01:47:05;;;;;;;;;;;;;;;8.66;86.26;102565.31;2091590;28;19912;-63
2021/09/21 01:48:05;;;;;;;;;;;;;;;8.63;86.38;102567.03;2091688;28;20328;-62
2021/09/21 01:49:05;;;;;;;;;;;;;;;8.61;86.41;102567.94;2091601;28;19908;-63
2021/09/21 01:50:21;;;;;;;;;;;;;;;8.58;86.27;102567.94;2091550;28;20389;-63
2021/09/21 01:51:53;;;;;;;;;;;;;;;8.58;86.45;102566.22;2091592;28;19923;-62
2021/09/21 01:58:46;;;;;;;;;;;;;;;8.34;86.84;102554.16;2094384;28;19909;-62
2021/09/21 01:59:47;;;;;;;;;;;;;;;8.33;86.74;102549.84;2091466;28;19944;-63
2021/09/21 02:00:47;;;;;;;;;;;;;;;8.30;86.48;102545.53;2091424;28;19962;-62
2021/09/21 02:01:47;;;;;;;;;;;;;;;8.27;86.40;102544.66;2091456;28;19919;-62
2021/09/21 02:02:47;;;;;;;;;;;;;;;8.22;86.59;102542.97;2091415;28;20422;-62
2021/09/21 02:03:49;;;;;;;;;;;;;;;8.15;86.55;102543.88;2082522;28;19953;-62
2021/09/21 02:04:49;;;;;;;;;;;;;;;8.12;86.66;102549.09;2082561;28;19909;-62
2021/09/21 02:05:49;;;;;;;;;;;;;;;8.07;86.70;102541.31;2091401;28;20354;-62
2021/09/21 02:06:51;;;;;;;;;;;;;;;8.01;86.80;102541.34;2091347;28;19966;-61
2021/09/21 02:07:51;;;;;;;;;;;;;;;7.96;87.07;102536.16;2091386;28;19909;-62
2021/09/21 02:08:51;;;;;;;;;;;;;;;7.92;87.01;102537.06;2082443;28;19913;-62
2021/09/21 02:09:51;;;;;;;;;;;;;;;7.87;86.85;102533.56;2082508;28;20413;-62
2021/09/21 02:10:52;;;;;;;;;;;;;;;7.83;86.63;102539.66;2091221;28;19909;-62
2021/09/21 02:11:52;;;;;;;;;;;;;;;7.76;87.21;102541.44;2091368;28;19912;-62
2021/09/21 02:12:52;;;;;;;;;;;;;;;7.73;87.79;102539.72;2091323;28;20357;-62
2021/09/21 02:13:57;;;;;;;;;;;;;;;7.68;87.94;102541.47;2091318;28;19912;-62
2021/09/21 02:14:59;;;;;;;;;;;;;;;7.65;87.96;102538.88;2091338;28;20365;-62
2021/09/21 02:16:00;;;;;;;;;;;;;;;7.62;87.83;102531.06;2091354;28;20384;-62
2021/09/21 02:17:00;;;;;;;;;;;;;;;7.57;88.24;102538.88;2091261;28;19909;-61
2021/09/21 02:18:01;;;;;;;;;;;;;;;7.54;88.56;102538.91;2082417;28;19909;-62
2021/09/21 02:19:01;;;;;;;;;;;;;;;7.51;88.57;102538.91;2082488;28;19909;-61
2021/09/21 02:20:01;;;;;;;;;;;;;;;7.49;88.87;102534.59;2091254;28;19915;-61
2021/09/21 02:21:02;;;;;;;;;;;;;;;7.45;89.35;102541.50;2092567;28;19960;-62
2021/09/21 02:22:02;;;;;;;;;;;;;;;7.45;89.71;102536.31;2091278;28;19956;-62
2021/09/21 02:23:02;;;;;;;;;;;;;;;7.44;89.59;102538.06;2091287;28;19931;-62
2021/09/21 02:24:03;;;;;;;;;;;;;;;7.42;89.30;102532.00;2091246;28;19913;-62
2021/09/21 02:25:03;;;;;;;;;;;;;;;7.41;89.67;102530.25;2091259;28;19912;-62
2021/09/21 02:26:03;;;;;;;;;;;;;;;7.38;89.84;102527.66;2091165;28;19908;-62
2021/09/21 02:27:04;;;;;;;;;;;;;;;7.39;90.18;102532.00;2091185;28;19916;-62
2021/09/21 02:28:04;;;;;;;;;;;;;;;7.35;89.98;102532.88;2091306;28;19916;-62
2021/09/21 02:29:04;;;;;;;;;;;;;;;7.32;90.33;102531.13;2091170;28;20373;-62
2021/09/21 02:30:04;;;;;;;;;;;;;;;7.30;90.47;102532.00;2091256;28;20259;-62
2021/09/21 02:31:05;;;;;;;;;;;;;;;7.30;90.98;102527.69;2082285;28;19913;-62
2021/09/21 02:32:05;;;;;;;;;;;;;;;7.27;91.31;102534.59;2082411;28;20382;-62
2021/09/21 02:33:06;;;;;;;;;;;;;;;7.25;90.99;102536.34;2091191;28;20345;-62
2021/09/21 02:34:07;;;;;;;;;;;;;;;7.22;91.58;102540.69;2091173;28;20007;-62
2021/09/21 02:35:07;;;;;;;;;;;;;;;7.20;91.29;102542.44;2091179;28;20397;-62
2021/09/21 02:36:07;;;;;;;;;;;;;;;7.18;91.11;102546.75;2091200;28;19963;-63
2021/09/21 02:37:07;;;;;;;;;;;;;;;7.15;91.31;102549.34;2082202;28;20251;-63
2021/09/21 02:38:08;;;;;;;;;;;;;;;7.16;91.25;102551.09;2082371;28;19909;-61
2021/09/21 02:39:09;;;;;;;;;;;;;;;7.15;91.06;102541.53;2091004;28;19912;-61
2021/09/21 02:40:10;;;;;;;;;;;;;;;7.14;90.99;102550.22;2091173;28;19959;-61
2021/09/21 02:41:11;;;;;;;;;;;;;;;7.15;90.99;102554.53;2091103;28;19966;-62
2021/09/21 02:42:11;;;;;;;;;;;;;;;7.18;91.13;102549.34;2091162;28;19978;-62
2021/09/21 02:43:11;;;;;;;;;;;;;;;7.19;91.79;102551.06;2091118;28;20433;-62
2021/09/21 02:44:11;;;;;;;;;;;;;;;7.19;91.57;102551.06;2091136;28;19916;-62
2021/09/21 02:45:12;;;;;;;;;;;;;;;7.19;91.65;102556.25;2091118;28;19909;-62
2021/09/21 02:46:12;;;;;;;;;;;;;;;7.18;91.55;102554.53;2091078;28;19909;-62
2021/09/21 02:47:12;;;;;;;;;;;;;;;7.19;91.17;102555.41;2091138;28;19959;-62
2021/09/21 02:48:12;;;;;;;;;;;;;;;7.19;91.76;102556.25;2091055;28;19942;-62
2021/09/21 02:49:12;;;;;;;;;;;;;;;7.20;91.89;102563.19;2091063;28;19955;-62
2021/09/21 02:50:13;;;;;;;;;;;;;;;7.18;91.89;102559.72;2091048;28;19968;-62
2021/09/21 02:51:13;;;;;;;;;;;;;;;7.17;91.74;102564.91;2093784;28;19909;-62
2021/09/21 02:52:13;;;;;;;;;;;;;;;7.14;92.34;102558.00;2091009;28;20280;-62
2021/09/21 02:53:17;;;;;;;;;;;;;;;7.14;92.12;102558.00;2091063;28;19974;-61
2021/09/21 02:54:17;;;;;;;;;;;;;;;7.12;92.20;102564.91;2090916;28;19913;-62
2021/09/21 02:55:17;;;;;;;;;;;;;;;7.11;91.98;102565.78;2091045;28;20415;-62
2021/09/21 02:56:17;;;;;;;;;;;;;;;7.09;91.65;102562.34;2090961;28;20266;-62
2021/09/21 02:57:18;;;;;;;;;;;;;;;7.08;92.24;102563.19;2091023;28;19930;-62
2021/09/21 02:58:18;;;;;;;;;;;;;;;7.09;92.27;102559.75;2090990;28;19948;-62
2021/09/21 02:59:18;;;;;;;;;;;;;;;7.09;92.38;102560.59;2091012;28;20004;-61
2021/09/21 03:00:24;;;;;;;;;;;;;;;7.12;92.43;102564.06;2091006;28;19909;-61
2021/09/21 03:01:24;;;;;;;;;;;;;;;7.07;91.90;102567.53;2090970;28;19908;-62
2021/09/21 03:02:25;;;;;;;;;;;;;;;7.07;91.76;102571.84;2091024;28;19948;-61
2021/09/21 03:03:30;;;;;;;;;;;;;;;7.06;92.61;102570.13;2090946;28;20281;-61
2021/09/21 03:04:37;;;;;;;;;;;;;;;7.07;92.23;102582.22;2091000;28;20346;-61
2021/09/21 03:05:46;;;;;;;;;;;;;;;7.07;92.29;102571.84;2082021;28;19931;-63
2021/09/21 03:06:50;;;;;;;;;;;;;;;7.08;92.14;102573.56;2083261;28;20375;-61
2021/09/21 03:08:04;;;;;;;;;;;;;;;7.05;92.27;102569.25;2090878;28;20377;-62
2021/09/21 03:09:22;;;;;;;;;;;;;;;7.04;92.61;102574.44;2090881;28;19931;-62
2021/09/21 03:10:33;;;;;;;;;;;;;;;7.01;92.07;102566.66;2090893;28;20293;-61
2021/09/21 03:11:40;;;;;;;;;;;;;;;7.00;92.15;102565.78;2090917;28;19991;-61
2021/09/21 03:13:01;;;;;;;;;;;;;;;7.00;92.20;102565.78;2090468;28;19991;-61
2021/09/21 03:17:09;;;;;;;;;;;;;;;6.91;92.24;102579.63;2090686;28;20357;-65
2021/09/21 03:18:09;;;;;;;;;;;;;;;6.88;92.17;102576.16;2090772;28;19908;-62
2021/09/21 03:19:10;;;;;;;;;;;;;;;6.86;92.16;102573.56;2081956;28;19908;-62
2021/09/21 03:20:10;;;;;;;;;;;;;;;6.81;92.10;102577.91;2081978;28;19916;-61
2021/09/21 03:21:11;;;;;;;;;;;;;;;6.82;92.87;102582.22;2090730;28;19923;-61
2021/09/21 03:22:11;;;;;;;;;;;;;;;6.79;92.64;102577.88;2090805;28;19931;-62
2021/09/21 03:23:11;;;;;;;;;;;;;;;6.76;92.25;102572.69;2081864;28;19913;-61
2021/09/21 03:24:11;;;;;;;;;;;;;;;6.76;92.76;102571.81;2082028;28;19913;-62
2021/09/21 03:25:12;;;;;;;;;;;;;;;6.74;92.83;102579.59;2090736;28;19908;-61
2021/09/21 03:26:12;;;;;;;;;;;;;;;6.72;93.21;102577.84;2090796;28;19948;-61
2021/09/21 03:27:13;;;;;;;;;;;;;;;6.70;93.23;102589.13;2090676;28;20267;-61
2021/09/21 03:28:13;;;;;;;;;;;;;;;6.72;93.06;102596.91;2090760;28;20301;-61
2021/09/21 03:29:14;;;;;;;;;;;;;;;6.74;92.92;102594.31;2090829;28;19912;-61
2021/09/21 03:30:14;;;;;;;;;;;;;;;6.71;93.20;102595.19;2090642;28;19987;-62
2021/09/21 03:31:15;;;;;;;;;;;;;;;6.69;93.03;102591.69;2090795;28;19912;-61
2021/09/21 03:32:15;;;;;;;;;;;;;;;6.69;93.41;102584.78;2090715;28;19998;-61
2021/09/21 03:33:15;;;;;;;;;;;;;;;6.70;93.05;102583.91;2090754;28;19908;-61
2021/09/21 03:34:16;;;;;;;;;;;;;;;6.70;93.46;102589.13;2090746;28;19944;-61
2021/09/21 03:35:16;;;;;;;;;;;;;;;6.68;93.19;102588.22;2090679;28;19955;-62
2021/09/21 03:36:16;;;;;;;;;;;;;;;6.64;92.71;102581.31;2090712;28;19948;-61
2021/09/21 03:37:16;;;;;;;;;;;;;;;6.63;92.84;102582.16;2090711;28;19913;-61
2021/09/21 03:38:17;;;;;;;;;;;;;;;6.60;92.86;102584.75;2081779;28;20340;-62
2021/09/21 03:39:17;;;;;;;;;;;;;;;6.59;93.12;102584.75;2081828;28;19909;-62
2021/09/21 03:40:17;;;;;;;;;;;;;;;6.59;94.01;102590.81;2081690;28;19909;-62
2021/09/21 03:41:17;;;;;;;;;;;;;;;6.56;93.26;102591.69;2081919;28;19971;-62
2021/09/21 03:42:18;;;;;;;;;;;;;;;6.54;93.83;102597.72;2081587;28;19920;-61
2021/09/21 03:43:18;;;;;;;;;;;;;;;6.53;93.51;102603.75;2081847;28;19909;-61
2021/09/21 03:44:18;;;;;;;;;;;;;;;6.50;93.28;102601.19;2090570;28;19982;-61
2021/09/21 03:45:18;;;;;;;;;;;;;;;6.47;93.25;102606.34;2081796;28;19920;-61
2021/09/21 03:46:18;;;;;;;;;;;;;;;6.43;93.69;102611.50;2081848;28;19951;-61
2021/09/21 03:47:19;;;;;;;;;;;;;;;6.41;93.66;102610.66;2089883;28;19935;-61
2021/09/21 03:48:19;;;;;;;;;;;;;;;6.36;93.58;102608.91;2090110;28;19909;-61
2021/09/21 03:49:20;;;;;;;;;;;;;;;6.32;93.57;102615.78;2090822;28;19908;-60
2021/09/21 03:50:20;;;;;;;;;;;;;;;6.29;93.80;102615.78;2090711;28;19953;-61
2021/09/21 03:51:21;;;;;;;;;;;;;;;6.31;93.36;102616.66;2090600;28;20011;-61
2021/09/21 03:52:21;;;;;;;;;;;;;;;6.29;93.14;102619.25;2090606;28;19913;-61
2021/09/21 03:53:21;;;;;;;;;;;;;;;6.27;93.24;102614.91;2090628;28;19936;-61
2021/09/21 03:54:22;;;;;;;;;;;;;;;6.24;93.78;102615.78;2090634;28;19909;-61
2021/09/21 03:55:23;;;;;;;;;;;;;;;6.22;93.77;102608.84;2093340;28;20281;-62
2021/09/21 03:56:23;;;;;;;;;;;;;;;6.21;93.35;102614.88;2081742;28;19932;-62
2021/09/21 03:57:23;;;;;;;;;;;;;;;6.20;93.32;102610.56;2081734;28;19909;-61
2021/09/21 03:58:24;;;;;;;;;;;;;;;6.18;93.28;102605.38;2073530;28;19971;-62
2021/09/21 03:59:25;;;;;;;;;;;;;;;6.16;93.40;102613.13;2081764;28;20000;-62
2021/09/21 04:00:25;;;;;;;;;;;;;;;6.14;93.62;102607.09;2090602;28;19965;-61
2021/09/21 04:01:25;;;;;;;;;;;;;;;6.14;93.38;102614.88;2081668;28;19912;-61
2021/09/21 04:02:25;;;;;;;;;;;;;;;6.12;94.09;102616.56;2081778;28;19909;-61
2021/09/21 04:03:25;;;;;;;;;;;;;;;6.12;93.64;102619.16;2090432;28;19913;-61
2021/09/21 04:04:25;;;;;;;;;;;;;;;6.11;94.18;102617.44;2090608;28;19915;-61
2021/09/21 04:05:26;;;;;;;;;;;;;;;6.10;94.30;102613.13;2090517;28;19972;-61
2021/09/21 04:06:26;;;;;;;;;;;;;;;6.11;94.37;102620.03;2081548;28;19956;-61
2021/09/21 04:07:27;;;;;;;;;;;;;;;6.10;93.77;102623.50;2081649;28;20358;-61
2021/09/21 04:08:27;;;;;;;;;;;;;;;6.08;93.87;102622.59;2089819;28;19909;-61
2021/09/21 04:09:27;;;;;;;;;;;;;;;6.05;94.34;102620.00;2089982;28;19992;-62
2021/09/21 04:10:27;;;;;;;;;;;;;;;6.05;93.97;102630.34;2090552;28;20289;-61
2021/09/21 04:11:27;;;;;;;;;;;;;;;6.03;94.38;102619.09;2090512;28;19915;-62
2021/09/21 04:12:28;;;;;;;;;;;;;;;6.02;93.77;102620.81;2090551;28;20289;-61
2021/09/21 04:13:28;;;;;;;;;;;;;;;6.02;94.04;102630.34;2090528;28;20361;-61
2021/09/21 04:14:31;;;;;;;;;;;;;;;6.00;93.92;102626.84;2090567;28;20420;-61
2021/09/21 04:15:31;;;;;;;;;;;;;;;6.00;94.38;102632.03;2081729;28;20004;-61
2021/09/21 04:16:31;;;;;;;;;;;;;;;6.01;94.67;102644.13;2081819;28;19913;-61
2021/09/21 04:17:32;;;;;;;;;;;;;;;6.01;94.91;102644.13;2090506;28;19912;-61
2021/09/21 04:18:32;;;;;;;;;;;;;;;6.01;94.79;102645.00;2090449;28;19909;-61
2021/09/21 04:19:32;;;;;;;;;;;;;;;6.00;94.46;102648.47;2090478;28;20285;-61
2021/09/21 04:20:32;;;;;;;;;;;;;;;5.98;94.33;102647.56;2081663;28;20394;-61
2021/09/21 04:21:32;;;;;;;;;;;;;;;5.97;94.96;102643.25;2081575;28;19924;-61
2021/09/21 04:22:33;;;;;;;;;;;;;;;5.95;94.66;102646.69;2090408;28;20054;-61
2021/09/21 04:23:33;;;;;;;;;;;;;;;5.91;94.12;102644.09;2090557;28;19947;-61
2021/09/21 04:24:34;;;;;;;;;;;;;;;5.90;94.89;102644.94;2090650;28;20023;-62
2021/09/21 04:25:34;;;;;;;;;;;;;;;5.89;94.45;102645.78;2092150;28;19944;-61
2021/09/21 04:26:34;;;;;;;;;;;;;;;5.89;94.33;102650.97;2092167;28;19912;-60
2021/09/21 04:27:34;;;;;;;;;;;;;;;5.89;95.36;102645.78;2092080;28;19916;-61
2021/09/21 04:28:35;;;;;;;;;;;;;;;5.90;95.07;102650.13;2092192;28;19913;-61
2021/09/21 04:29:35;;;;;;;;;;;;;;;5.88;94.73;102648.34;2094869;28;19909;-61
2021/09/21 04:30:36;;;;;;;;;;;;;;;5.87;95.10;102650.09;2092222;28;19958;-60
2021/09/21 04:31:40;;;;;;;;;;;;;;;5.84;94.77;102647.50;2092079;28;19909;-61
2021/09/21 04:32:41;;;;;;;;;;;;;;;5.80;95.25;102646.63;2092215;28;19996;-61
2021/09/21 04:33:41;;;;;;;;;;;;;;;5.78;94.50;102653.50;2092096;28;19912;-61
2021/09/21 04:34:41;;;;;;;;;;;;;;;5.77;95.24;102650.88;2092147;28;19917;-61
2021/09/21 04:35:42;;;;;;;;;;;;;;;5.76;94.90;102657.81;2092048;28;20362;-61
2021/09/21 04:36:42;;;;;;;;;;;;;;;5.80;95.60;102659.56;2092164;28;19915;-61
2021/09/21 04:37:43;;;;;;;;;;;;;;;5.82;95.56;102657.00;2092086;28;19982;-61
2021/09/21 04:38:43;;;;;;;;;;;;;;;5.80;95.17;102661.28;2092228;28;19916;-61
2021/09/21 04:39:43;;;;;;;;;;;;;;;5.82;95.50;102658.69;2092115;28;19952;-60
2021/09/21 04:40:43;;;;;;;;;;;;;;;5.78;95.30;102648.31;2092139;28;19920;-61
2021/09/21 04:41:43;;;;;;;;;;;;;;;5.76;95.40;102643.97;2092120;28;19913;-61
2021/09/21 04:42:44;;;;;;;;;;;;;;;5.73;94.84;102643.94;2083155;28;20401;-61
2021/09/21 04:43:44;;;;;;;;;;;;;;;5.72;94.80;102642.22;2083211;28;19913;-60
2021/09/21 04:44:44;;;;;;;;;;;;;;;5.72;95.37;102648.28;2091994;28;20281;-61
2021/09/21 04:45:44;;;;;;;;;;;;;;;5.72;95.09;102645.69;2092034;28;19948;-61
2021/09/21 04:46:45;;;;;;;;;;;;;;;5.73;95.09;102651.72;2083140;28;19967;-61
2021/09/21 04:47:45;;;;;;;;;;;;;;;5.73;95.52;102655.19;2083028;28;19917;-61
2021/09/21 04:48:45;;;;;;;;;;;;;;;5.72;95.39;102653.47;2083162;28;20381;-61
2021/09/21 04:49:45;;;;;;;;;;;;;;;5.71;95.57;102656.03;2091905;28;19913;-61
2021/09/21 04:50:45;;;;;;;;;;;;;;;5.69;95.18;102658.63;2092082;28;19908;-61
2021/09/21 04:51:46;;;;;;;;;;;;;;;5.69;95.56;102657.75;2092006;28;19930;-61
2021/09/21 04:52:46;;;;;;;;;;;;;;;5.65;95.33;102662.91;2091981;28;19909;-61
2021/09/21 04:53:46;;;;;;;;;;;;;;;5.66;95.31;102663.78;2091985;28;19916;-62
2021/09/21 04:54:46;;;;;;;;;;;;;;;5.71;95.57;102674.19;2091945;28;19915;-61
2021/09/21 04:55:46;;;;;;;;;;;;;;;5.70;95.56;102660.34;2091878;28;20289;-61
2021/09/21 04:56:47;;;;;;;;;;;;;;;5.74;95.87;102666.41;2092006;28;19919;-61
2021/09/21 04:57:47;;;;;;;;;;;;;;;5.78;96.35;102670.75;2091955;28;19934;-61
2021/09/21 04:58:47;;;;;;;;;;;;;;;5.78;95.97;102669.03;2091913;28;19912;-61
2021/09/21 04:59:47;;;;;;;;;;;;;;;5.82;96.15;102669.94;2091819;28;19912;-61
2021/09/21 05:00:49;;;;;;;;;;;;;;;5.82;95.77;102671.66;2091936;28;19920;-61
2021/09/21 05:01:49;;;;;;;;;;;;;;;5.78;95.52;102668.16;2091784;28;20427;-61
2021/09/21 05:02:49;;;;;;;;;;;;;;;5.76;95.75;102668.19;2091906;28;19908;-61
2021/09/21 05:03:50;;;;;;;;;;;;;;;5.78;95.99;102660.38;2091882;28;19909;-61
2021/09/21 05:04:50;;;;;;;;;;;;;;;5.80;95.90;102656.97;2091917;28;19912;-61
2021/09/21 05:05:50;;;;;;;;;;;;;;;5.78;95.86;102663.84;2091818;28;20373;-61
2021/09/21 05:06:50;;;;;;;;;;;;;;;5.76;95.72;102664.72;2091896;28;19913;-61
2021/09/21 05:07:50;;;;;;;;;;;;;;;5.75;96.07;102668.16;2082783;28;20278;-61
2021/09/21 05:08:51;;;;;;;;;;;;;;;5.72;95.91;102678.50;2083057;28;19909;-61
2021/09/21 05:09:51;;;;;;;;;;;;;;;5.72;95.56;102675.91;2091817;28;19909;-61
2021/09/21 05:10:51;;;;;;;;;;;;;;;5.71;95.69;102682.81;2091819;28;19947;-61
2021/09/21 05:11:51;;;;;;;;;;;;;;;5.70;95.63;102683.66;2091819;28;19913;-61
2021/09/21 05:12:51;;;;;;;;;;;;;;;5.69;96.13;102691.41;2091900;28;19908;-61
2021/09/21 05:13:52;;;;;;;;;;;;;;;5.66;96.04;102679.31;2091851;28;19908;-60
2021/09/21 05:14:52;;;;;;;;;;;;;;;5.65;95.98;102693.97;2091924;28;20354;-61
2021/09/21 05:15:52;;;;;;;;;;;;;;;5.62;95.74;102693.09;2091835;28;19915;-61
2021/09/21 05:16:53;;;;;;;;;;;;;;;5.60;95.99;102685.31;2091918;28;20365;-61
2021/09/21 05:17:54;;;;;;;;;;;;;;;5.60;96.07;102685.31;2091823;28;19916;-61
2021/09/21 05:18:54;;;;;;;;;;;;;;;5.61;95.58;102691.38;2091707;28;19995;-61
2021/09/21 05:19:54;;;;;;;;;;;;;;;5.62;96.27;102693.97;2091635;28;20255;-61
2021/09/21 05:20:54;;;;;;;;;;;;;;;5.63;95.63;102690.53;2082713;28;19916;-61
2021/09/21 05:21:55;;;;;;;;;;;;;;;5.64;96.19;102692.25;2082860;28;19913;-61
2021/09/21 05:22:55;;;;;;;;;;;;;;;5.63;96.20;102689.66;2091074;28;19940;-61
2021/09/21 05:23:55;;;;;;;;;;;;;;;5.63;96.08;102694.81;2091782;28;19920;-62
2021/09/21 05:24:56;;;;;;;;;;;;;;;5.65;95.89;102683.63;2091809;28;20401;-61
2021/09/21 05:25:56;;;;;;;;;;;;;;;5.66;96.21;102677.59;2091692;28;20388;-62
2021/09/21 05:26:56;;;;;;;;;;;;;;;5.69;96.49;102674.16;2091628;28;20381;-61